Nearby METAR Reports

 

KSJC - San Jose, California, USA
Distance from station: NE 9mi, 14km
Updated: Sun, 25-Feb-2018 11:53am MST
Few Clouds
Few Clouds
 Wind from calm
Wind: Calm
Temperature: 54°F , 12°C
Dew Point: 39°F , 4°C
Humidity: 58%
Barometer: 30.36 inHg , 1028.1 hPa
Clouds: Few Clouds
Visibility: 10 miles , 16 km
Cloud details: Few Clouds 14000 ft
2018/02/25 18:53 KSJC 251853Z 00000KT 10SM FEW140 12/04 A3036 RMK AO2 SLP278 T01220039 $
KNUQ - Moffett Nas/Mtn, California, USA
Distance from station: N 9mi, 14km
Updated: Sun, 25-Feb-2018 11:56am MST
Clear
Clear
 Wind from varies
Wind: varies 6 mph , 9 km/h
Temperature: 54°F , 12°C
Dew Point: 41°F , 5°C
Humidity: 63%
Barometer: 30.37 inHg , 1028.4 hPa
Clouds: Clear
Visibility: 10 miles , 16 km
2018/02/25 18:56 KNUQ 251856Z VRB05KT 10SM CLR 12/05 A3037 RMK AO2 SLP285 T01170050
 
KPAO - Palo Alto, California, USA
Distance from station: NNW 14mi, 23km
Updated: Sun, 25-Feb-2018 11:47am MST
Clear
Clear
 Wind from varies
Wind: varies 7 mph , 11 km/h
Barometer: 30.36 inHg , 1028.1 hPa
Clouds: Clear
Visibility: 10 miles , 16 km
2018/02/25 18:47 KPAO 251847Z VRB06KT 10SM SKC A3036
KRHV - San Jose/Reid, California, USA
Distance from station: ENE 12mi, 19km
Updated: Sun, 25-Feb-2018 11:47am MST
Clear
Clear
 Wind from NW
Wind: NW 5 mph , 7 km/h
Temperature: 52°F , 11°C
Dew Point: 39°F , 4°C
Humidity: 62%
Barometer: 30.34 inHg , 1027.4 hPa
Clouds: Clear
Visibility: 10 miles , 16 km
2018/02/25 18:47 KRHV 251847Z 32004KT 10SM SKC 11/04 A3034
 
KOAK - Oakland, California, USA
Distance from station: NNW 31mi, 50km
Updated: Sun, 25-Feb-2018 11:53am MST
Few Clouds
Few Clouds
 Wind from SSW
Wind: SSW 3 mph , 6 km/h
Temperature: 52°F , 11°C
Dew Point: 39°F , 4°C
Humidity: 62%
Barometer: 30.37 inHg , 1028.4 hPa
Clouds: Few Clouds
Visibility: 10 miles , 16 km
Cloud details: Few Clouds 25000 ft
2018/02/25 18:53 KOAK 251853Z 20003KT 10SM FEW250 11/04 A3037 RMK AO2 SLP282 T01060044
KSQL - San Carlos Airpo, California, USA
Distance from station: NW 21mi, 34km
Updated: Sun, 25-Feb-2018 11:47am MST
Clear
Clear
 Wind from varies
Wind: varies 6 mph , 9 km/h
Temperature: 52°F , 11°C
Dew Point: 39°F , 4°C
Humidity: 62%
Barometer: 30.36 inHg , 1028.1 hPa
Clouds: Clear
Visibility: 10 miles , 16 km
2018/02/25 18:47 KSQL 251847Z VRB05KT 10SM SKC 11/04 A3036
 
KSFO - San Francisco, California, USA
Distance from station: NW 30mi, 49km
Updated: Sun, 25-Feb-2018 11:56am MST
Few Clouds
Few Clouds
 Wind from NE
Wind: NE 7 mph , 11 km/h
Temperature: 52°F , 11°C
Dew Point: 39°F , 4°C
Humidity: 62%
Barometer: 30.36 inHg , 1028.1 hPa
Clouds: Few Clouds
Visibility: 10 miles , 16 km
Cloud details: Few Clouds 20000 ft
2018/02/25 18:56 KSFO 251856Z 04006KT 10SM FEW200 11/04 A3036 RMK AO2 SLP280 T01110039 $
KE16 - San Martin, California, USA
Distance from station: ESE 27mi, 43km
Updated: Sun, 25-Feb-2018 11:55am MST
Clear
Clear
 Wind from calm
Wind: Calm
Temperature: 50°F , 10°C
Dew Point: 37°F , 3°C
Humidity: 62%
Barometer: 30.37 inHg , 1028.4 hPa
Clouds: Clear
Visibility: 10 miles , 16 km
2018/02/25 18:55 KE16 251855Z AUTO 00000KT 10SM CLR 10/03 A3037 RMK AO2
 
KWVI - Watsonville, California, USA
Distance from station: SSE 27mi, 44km
Updated: Sun, 25-Feb-2018 11:53am MST
Clear
Clear
 Wind from SE
Wind: SE 5 mph , 7 km/h
Temperature: 55°F , 13°C
Dew Point: 39°F , 4°C
Humidity: 55%
Barometer: 30.35 inHg , 1027.8 hPa
Clouds: Clear
Visibility: 10 miles , 16 km
2018/02/25 18:53 KWVI 251853Z AUTO 14004KT 10SM CLR 13/04 A3035 RMK AO2 SLP277 T01330044
KHAF - Half Moon Bay, California, USA
Distance from station: WNW 31mi, 50km
Updated: Sun, 25-Feb-2018 12:15pm MST
Haze, Clear
Haze, Clear
 Wind from NW
Wind: NW 10 mph , 17 km/h
Temperature: 52°F , 11°C
Dew Point: 41°F , 5°C
Humidity: 67%
Barometer: 30.32 inHg , 1026.8 hPa
Summary: Haze
Clouds: Clear
Visibility: 5 miles , 8 km
2018/02/25 19:15 KHAF 251915Z AUTO 31009KT 5SM HZ CLR 11/05 A3032 RMK AO2
 
KHWD - Hayward, California, USA
Distance from station: N 28mi, 44km
Updated: Sun, 25-Feb-2018 11:54am MST
Clear
Clear
 Wind from varies
Wind: varies 3 mph , 6 km/h
Temperature: 52°F , 11°C
Dew Point: 37°F , 3°C
Humidity: 58%
Barometer: 30.36 inHg , 1028.1 hPa
Clouds: Clear
Visibility: 10 miles , 16 km
2018/02/25 18:54 KHWD 251854Z VRB03KT 10SM CLR 11/03 A3036 RMK AO2 SLP291 T01110028
KLVK - Livermore, California, USA
Distance from station: NNE 31mi, 51km
Updated: Sun, 25-Feb-2018 11:53am MST
Clear
Clear
 Wind from calm
Wind: Calm
Temperature: 52°F , 11°C
Dew Point: 36°F , 2°C
Humidity: 54%
Barometer: 30.34 inHg , 1027.4 hPa
Clouds: Clear
Visibility: 10 miles , 16 km
2018/02/25 18:53 KLVK 251853Z 00000KT 10SM CLR 11/02 A3034 RMK AO2 SLP276 T01110022